sensor_id;sensor_type;location;lat;lon;timestamp;P1;durP1;ratioP1;P2;durP2;ratioP2
29236;SDS011;16266;50.866;4.398;2023-07-08T00:00:27;561.65;;;535.20;;
29236;SDS011;16266;50.866;4.398;2023-07-08T00:02:53;496.27;;;473.75;;
29236;SDS011;16266;50.866;4.398;2023-07-08T00:05:20;431.80;;;412.83;;
29236;SDS011;16266;50.866;4.398;2023-07-08T00:07:47;450.42;;;430.73;;
29236;SDS011;16266;50.866;4.398;2023-07-08T00:10:13;492.15;;;470.40;;
29236;SDS011;16266;50.866;4.398;2023-07-08T00:12:45;468.25;;;447.63;;
29236;SDS011;16266;50.866;4.398;2023-07-08T00:15:12;431.05;;;412.63;;
29236;SDS011;16266;50.866;4.398;2023-07-08T00:17:38;441.05;;;421.90;;
29236;SDS011;16266;50.866;4.398;2023-07-08T00:20:09;397.42;;;380.35;;
29236;SDS011;16266;50.866;4.398;2023-07-08T00:22:39;396.60;;;379.40;;
29236;SDS011;16266;50.866;4.398;2023-07-08T00:25:06;424.38;;;405.85;;
29236;SDS011;16266;50.866;4.398;2023-07-08T00:27:34;446.77;;;427.00;;
29236;SDS011;16266;50.866;4.398;2023-07-08T00:30:00;466.55;;;445.73;;
29236;SDS011;16266;50.866;4.398;2023-07-08T00:32:25;451.25;;;431.35;;
29236;SDS011;16266;50.866;4.398;2023-07-08T00:34:51;450.23;;;430.70;;
29236;SDS011;16266;50.866;4.398;2023-07-08T00:37:17;454.15;;;434.38;;
29236;SDS011;16266;50.866;4.398;2023-07-08T00:39:42;434.13;;;415.38;;
29236;SDS011;16266;50.866;4.398;2023-07-08T00:42:16;413.80;;;396.35;;
29236;SDS011;16266;50.866;4.398;2023-07-08T00:44:43;380.17;;;364.58;;
29236;SDS011;16266;50.866;4.398;2023-07-08T00:47:10;447.48;;;428.52;;
29236;SDS011;16266;50.866;4.398;2023-07-08T00:54:53;404.73;;;387.92;;
29236;SDS011;16266;50.866;4.398;2023-07-08T00:57:25;359.75;;;345.13;;
29236;SDS011;16266;50.866;4.398;2023-07-08T01:02:20;240.52;;;230.82;;
29236;SDS011;16266;50.866;4.398;2023-07-08T01:05:10;257.95;;;247.65;;
29236;SDS011;16266;50.866;4.398;2023-07-08T01:07:36;290.52;;;278.30;;
29236;SDS011;16266;50.866;4.398;2023-07-08T01:10:07;222.45;;;213.57;;
29236;SDS011;16266;50.866;4.398;2023-07-08T01:12:38;208.48;;;200.20;;
29236;SDS011;16266;50.866;4.398;2023-07-08T01:15:07;191.43;;;183.85;;
29236;SDS011;16266;50.866;4.398;2023-07-08T01:17:35;227.30;;;218.30;;
29236;SDS011;16266;50.866;4.398;2023-07-08T01:20:04;215.63;;;206.98;;
29236;SDS011;16266;50.866;4.398;2023-07-08T01:22:30;213.52;;;204.75;;
29236;SDS011;16266;50.866;4.398;2023-07-08T01:24:58;246.57;;;236.10;;
29236;SDS011;16266;50.866;4.398;2023-07-08T01:27:28;245.85;;;235.70;;
29236;SDS011;16266;50.866;4.398;2023-07-08T01:29:57;335.58;;;320.70;;
29236;SDS011;16266;50.866;4.398;2023-07-08T01:32:24;454.38;;;432.42;;
29236;SDS011;16266;50.866;4.398;2023-07-08T01:34:49;531.45;;;505.58;;
29236;SDS011;16266;50.866;4.398;2023-07-08T01:37:46;613.90;;;582.63;;
29236;SDS011;16266;50.866;4.398;2023-07-08T01:42:54;582.47;;;553.10;;
29236;SDS011;16266;50.866;4.398;2023-07-08T01:45:21;600.95;;;569.80;;
29236;SDS011;16266;50.866;4.398;2023-07-08T01:47:52;610.10;;;577.85;;
29236;SDS011;16266;50.866;4.398;2023-07-08T01:50:21;624.72;;;590.92;;
29236;SDS011;16266;50.866;4.398;2023-07-08T01:52:49;590.67;;;558.88;;
29236;SDS011;16266;50.866;4.398;2023-07-08T01:55:20;595.75;;;563.78;;
29236;SDS011;16266;50.866;4.398;2023-07-08T01:57:48;611.05;;;577.60;;
29236;SDS011;16266;50.866;4.398;2023-07-08T02:00:16;606.42;;;573.72;;
29236;SDS011;16266;50.866;4.398;2023-07-08T02:02:42;618.95;;;584.58;;
29236;SDS011;16266;50.866;4.398;2023-07-08T02:05:08;799.95;;;737.13;;
29236;SDS011;16266;50.866;4.398;2023-07-08T02:07:33;580.47;;;550.03;;
29236;SDS011;16266;50.866;4.398;2023-07-08T02:09:59;563.60;;;534.42;;
29236;SDS011;16266;50.866;4.398;2023-07-08T02:12:25;467.65;;;445.08;;
29236;SDS011;16266;50.866;4.398;2023-07-08T02:14:50;483.60;;;461.27;;
29236;SDS011;16266;50.866;4.398;2023-07-08T02:17:16;442.50;;;423.45;;
29236;SDS011;16266;50.866;4.398;2023-07-08T02:19:42;484.70;;;463.17;;
29236;SDS011;16266;50.866;4.398;2023-07-08T02:22:09;585.10;;;557.30;;
29236;SDS011;16266;50.866;4.398;2023-07-08T02:24:35;667.58;;;633.25;;
29236;SDS011;16266;50.866;4.398;2023-07-08T02:27:00;728.45;;;688.88;;
29236;SDS011;16266;50.866;4.398;2023-07-08T02:29:26;728.28;;;687.88;;
29236;SDS011;16266;50.866;4.398;2023-07-08T02:31:52;783.08;;;738.33;;
29236;SDS011;16266;50.866;4.398;2023-07-08T02:34:18;772.33;;;727.95;;
29236;SDS011;16266;50.866;4.398;2023-07-08T02:36:43;827.10;;;777.70;;
29236;SDS011;16266;50.866;4.398;2023-07-08T02:39:10;858.80;;;805.80;;
29236;SDS011;16266;50.866;4.398;2023-07-08T02:41:36;825.75;;;773.47;;
29236;SDS011;16266;50.866;4.398;2023-07-08T02:44:02;836.17;;;783.08;;
29236;SDS011;16266;50.866;4.398;2023-07-08T02:46:27;822.55;;;770.63;;
29236;SDS011;16266;50.866;4.398;2023-07-08T02:48:53;810.33;;;759.40;;
29236;SDS011;16266;50.866;4.398;2023-07-08T02:51:19;796.97;;;746.95;;
29236;SDS011;16266;50.866;4.398;2023-07-08T02:53:44;737.50;;;691.30;;
29236;SDS011;16266;50.866;4.398;2023-07-08T02:56:10;776.08;;;727.55;;
29236;SDS011;16266;50.866;4.398;2023-07-08T02:58:36;783.75;;;734.40;;
29236;SDS011;16266;50.866;4.398;2023-07-08T03:01:01;766.45;;;718.63;;
29236;SDS011;16266;50.866;4.398;2023-07-08T03:03:27;752.55;;;705.70;;
29236;SDS011;16266;50.866;4.398;2023-07-08T03:05:57;770.92;;;723.13;;
29236;SDS011;16266;50.866;4.398;2023-07-08T03:08:24;783.40;;;734.75;;
29236;SDS011;16266;50.866;4.398;2023-07-08T03:10:55;783.22;;;735.13;;
29236;SDS011;16266;50.866;4.398;2023-07-08T03:13:23;789.08;;;740.20;;
29236;SDS011;16266;50.866;4.398;2023-07-08T03:15:49;928.17;;;856.08;;
29236;SDS011;16266;50.866;4.398;2023-07-08T03:18:14;749.45;;;704.60;;
29236;SDS011;16266;50.866;4.398;2023-07-08T03:20:40;769.45;;;722.58;;
29236;SDS011;16266;50.866;4.398;2023-07-08T03:23:09;738.67;;;695.97;;
29236;SDS011;16266;50.866;4.398;2023-07-08T03:25:35;715.33;;;674.25;;
29236;SDS011;16266;50.866;4.398;2023-07-08T03:28:02;722.45;;;681.30;;
29236;SDS011;16266;50.866;4.398;2023-07-08T03:30:31;679.67;;;641.70;;
29236;SDS011;16266;50.866;4.398;2023-07-08T03:32:57;716.28;;;675.97;;
29236;SDS011;16266;50.866;4.398;2023-07-08T03:35:23;691.35;;;653.92;;
29236;SDS011;16266;50.866;4.398;2023-07-08T03:37:48;690.28;;;653.38;;
29236;SDS011;16266;50.866;4.398;2023-07-08T03:40:14;679.55;;;644.05;;
29236;SDS011;16266;50.866;4.398;2023-07-08T03:42:40;651.00;;;617.28;;
29236;SDS011;16266;50.866;4.398;2023-07-08T03:45:05;639.35;;;606.80;;
29236;SDS011;16266;50.866;4.398;2023-07-08T03:47:31;653.83;;;620.88;;
29236;SDS011;16266;50.866;4.398;2023-07-08T03:49:57;622.33;;;591.30;;
29236;SDS011;16266;50.866;4.398;2023-07-08T03:52:23;609.80;;;579.53;;
29236;SDS011;16266;50.866;4.398;2023-07-08T03:54:48;611.30;;;581.28;;
29236;SDS011;16266;50.866;4.398;2023-07-08T03:57:14;603.67;;;574.22;;
29236;SDS011;16266;50.866;4.398;2023-07-08T03:59:40;511.92;;;487.30;;
29236;SDS011;16266;50.866;4.398;2023-07-08T04:02:05;594.80;;;565.90;;
29236;SDS011;16266;50.866;4.398;2023-07-08T04:04:33;603.63;;;574.03;;
29236;SDS011;16266;50.866;4.398;2023-07-08T04:07:00;592.22;;;563.15;;
29236;SDS011;16266;50.866;4.398;2023-07-08T04:09:26;594.47;;;565.45;;
29236;SDS011;16266;50.866;4.398;2023-07-08T04:11:51;576.65;;;548.83;;
29236;SDS011;16266;50.866;4.398;2023-07-08T04:14:17;557.03;;;529.45;;
29236;SDS011;16266;50.866;4.398;2023-07-08T04:16:44;428.10;;;408.98;;
29236;SDS011;16266;50.866;4.398;2023-07-08T04:19:16;398.08;;;380.88;;
29236;SDS011;16266;50.866;4.398;2023-07-08T04:21:42;215.07;;;206.48;;
29236;SDS011;16266;50.866;4.398;2023-07-08T04:24:13;379.88;;;364.02;;
29236;SDS011;16266;50.866;4.398;2023-07-08T04:26:40;585.63;;;558.70;;
29236;SDS011;16266;50.866;4.398;2023-07-08T04:29:12;415.05;;;396.83;;
29236;SDS011;16266;50.866;4.398;2023-07-08T04:31:40;239.82;;;230.50;;
29236;SDS011;16266;50.866;4.398;2023-07-08T04:34:07;290.33;;;279.17;;
29236;SDS011;16266;50.866;4.398;2023-07-08T04:36:33;151.25;;;145.45;;
29236;SDS011;16266;50.866;4.398;2023-07-08T04:39:00;94.80;;;91.28;;
29236;SDS011;16266;50.866;4.398;2023-07-08T04:41:26;60.30;;;58.00;;
29236;SDS011;16266;50.866;4.398;2023-07-08T04:43:52;70.07;;;67.38;;
29236;SDS011;16266;50.866;4.398;2023-07-08T04:46:27;83.60;;;80.50;;
29236;SDS011;16266;50.866;4.398;2023-07-08T04:48:59;78.35;;;75.43;;
29236;SDS011;16266;50.866;4.398;2023-07-08T04:51:26;81.25;;;77.85;;
29236;SDS011;16266;50.866;4.398;2023-07-08T04:53:52;50.75;;;48.88;;
29236;SDS011;16266;50.866;4.398;2023-07-08T04:56:17;55.85;;;53.80;;
29236;SDS011;16266;50.866;4.398;2023-07-08T04:58:44;69.18;;;66.70;;
29236;SDS011;16266;50.866;4.398;2023-07-08T05:01:10;77.20;;;74.32;;
29236;SDS011;16266;50.866;4.398;2023-07-08T05:03:35;56.78;;;53.92;;
29236;SDS011;16266;50.866;4.398;2023-07-08T05:06:01;47.35;;;45.60;;
29236;SDS011;16266;50.866;4.398;2023-07-08T05:08:27;39.80;;;38.45;;
29236;SDS011;16266;50.866;4.398;2023-07-08T05:10:52;39.40;;;37.97;;
29236;SDS011;16266;50.866;4.398;2023-07-08T05:13:18;27.90;;;26.75;;
29236;SDS011;16266;50.866;4.398;2023-07-08T05:15:44;17.05;;;16.45;;
29236;SDS011;16266;50.866;4.398;2023-07-08T05:18:09;16.40;;;15.88;;
29236;SDS011;16266;50.866;4.398;2023-07-08T05:20:35;19.75;;;19.05;;
29236;SDS011;16266;50.866;4.398;2023-07-08T05:23:01;21.85;;;21.08;;
29236;SDS011;16266;50.866;4.398;2023-07-08T05:25:30;21.70;;;21.00;;
29236;SDS011;16266;50.866;4.398;2023-07-08T05:30:22;19.42;;;18.42;;
29236;SDS011;16266;50.866;4.398;2023-07-08T05:32:48;18.77;;;18.08;;
29236;SDS011;16266;50.866;4.398;2023-07-08T05:35:14;21.05;;;20.20;;
29236;SDS011;16266;50.866;4.398;2023-07-08T05:37:39;16.83;;;16.13;;
29236;SDS011;16266;50.866;4.398;2023-07-08T05:40:06;16.77;;;16.23;;
29236;SDS011;16266;50.866;4.398;2023-07-08T05:42:35;17.48;;;16.83;;
29236;SDS011;16266;50.866;4.398;2023-07-08T05:45:01;15.02;;;14.52;;
29236;SDS011;16266;50.866;4.398;2023-07-08T05:47:27;16.85;;;16.25;;
29236;SDS011;16266;50.866;4.398;2023-07-08T05:49:52;19.05;;;18.42;;
29236;SDS011;16266;50.866;4.398;2023-07-08T05:52:18;18.42;;;17.80;;
29236;SDS011;16266;50.866;4.398;2023-07-08T05:54:44;17.38;;;16.70;;
29236;SDS011;16266;50.866;4.398;2023-07-08T05:57:10;17.40;;;16.70;;
29236;SDS011;16266;50.866;4.398;2023-07-08T05:59:36;16.13;;;15.52;;
29236;SDS011;16266;50.866;4.398;2023-07-08T06:02:08;16.80;;;15.98;;
29236;SDS011;16266;50.866;4.398;2023-07-08T06:04:36;15.80;;;15.30;;
29236;SDS011;16266;50.866;4.398;2023-07-08T06:07:01;18.65;;;17.52;;
29236;SDS011;16266;50.866;4.398;2023-07-08T06:09:27;19.65;;;18.85;;
29236;SDS011;16266;50.866;4.398;2023-07-08T06:11:53;20.15;;;19.45;;
29236;SDS011;16266;50.866;4.398;2023-07-08T06:14:19;18.70;;;17.92;;
29236;SDS011;16266;50.866;4.398;2023-07-08T06:16:44;18.67;;;17.98;;
29236;SDS011;16266;50.866;4.398;2023-07-08T06:19:10;14.55;;;14.05;;
29236;SDS011;16266;50.866;4.398;2023-07-08T06:21:36;17.48;;;16.88;;
29236;SDS011;16266;50.866;4.398;2023-07-08T06:24:02;18.08;;;17.48;;
29236;SDS011;16266;50.866;4.398;2023-07-08T06:26:28;17.88;;;17.23;;
29236;SDS011;16266;50.866;4.398;2023-07-08T06:28:54;18.00;;;17.40;;
29236;SDS011;16266;50.866;4.398;2023-07-08T06:31:19;21.08;;;20.25;;
29236;SDS011;16266;50.866;4.398;2023-07-08T06:33:45;20.48;;;19.77;;
29236;SDS011;16266;50.866;4.398;2023-07-08T06:36:11;22.73;;;21.92;;
29236;SDS011;16266;50.866;4.398;2023-07-08T06:38:36;23.38;;;22.48;;
29236;SDS011;16266;50.866;4.398;2023-07-08T06:41:02;22.02;;;21.20;;
29236;SDS011;16266;50.866;4.398;2023-07-08T06:43:27;30.02;;;28.75;;
29236;SDS011;16266;50.866;4.398;2023-07-08T06:45:53;35.38;;;33.95;;
29236;SDS011;16266;50.866;4.398;2023-07-08T06:48:19;32.38;;;31.05;;
29236;SDS011;16266;50.866;4.398;2023-07-08T06:50:48;24.95;;;24.05;;
29236;SDS011;16266;50.866;4.398;2023-07-08T06:53:14;24.30;;;23.48;;
29236;SDS011;16266;50.866;4.398;2023-07-08T06:55:40;26.27;;;25.40;;
29236;SDS011;16266;50.866;4.398;2023-07-08T06:58:06;24.40;;;23.60;;
29236;SDS011;16266;50.866;4.398;2023-07-08T07:00:31;24.10;;;23.30;;
29236;SDS011;16266;50.866;4.398;2023-07-08T07:02:57;21.42;;;20.73;;
29236;SDS011;16266;50.866;4.398;2023-07-08T07:05:22;20.73;;;19.65;;
29236;SDS011;16266;50.866;4.398;2023-07-08T07:07:48;17.10;;;16.50;;
29236;SDS011;16266;50.866;4.398;2023-07-08T07:10:14;20.70;;;19.98;;
29236;SDS011;16266;50.866;4.398;2023-07-08T07:12:39;19.65;;;18.95;;
29236;SDS011;16266;50.866;4.398;2023-07-08T07:15:05;17.83;;;17.23;;
29236;SDS011;16266;50.866;4.398;2023-07-08T07:17:31;20.98;;;19.20;;
29236;SDS011;16266;50.866;4.398;2023-07-08T07:19:57;20.35;;;19.55;;
29236;SDS011;16266;50.866;4.398;2023-07-08T07:22:22;20.33;;;19.52;;
29236;SDS011;16266;50.866;4.398;2023-07-08T07:24:48;23.20;;;22.38;;
29236;SDS011;16266;50.866;4.398;2023-07-08T07:27:14;21.60;;;20.90;;
29236;SDS011;16266;50.866;4.398;2023-07-08T07:29:41;23.80;;;22.98;;
29236;SDS011;16266;50.866;4.398;2023-07-08T07:32:11;23.23;;;22.17;;
29236;SDS011;16266;50.866;4.398;2023-07-08T07:34:38;22.60;;;21.83;;
29236;SDS011;16266;50.866;4.398;2023-07-08T07:37:05;20.98;;;20.25;;
29236;SDS011;16266;50.866;4.398;2023-07-08T07:39:31;23.58;;;22.70;;
29236;SDS011;16266;50.866;4.398;2023-07-08T07:41:57;30.00;;;28.98;;
29236;SDS011;16266;50.866;4.398;2023-07-08T07:44:23;31.10;;;29.90;;
29236;SDS011;16266;50.866;4.398;2023-07-08T07:46:49;22.45;;;21.65;;
29236;SDS011;16266;50.866;4.398;2023-07-08T07:49:17;22.63;;;21.73;;
29236;SDS011;16266;50.866;4.398;2023-07-08T07:51:42;20.17;;;19.45;;
29236;SDS011;16266;50.866;4.398;2023-07-08T07:54:09;20.10;;;18.55;;
29236;SDS011;16266;50.866;4.398;2023-07-08T07:56:35;20.30;;;19.52;;
29236;SDS011;16266;50.866;4.398;2023-07-08T07:59:00;21.58;;;20.65;;
29236;SDS011;16266;50.866;4.398;2023-07-08T08:01:27;20.17;;;19.48;;
29236;SDS011;16266;50.866;4.398;2023-07-08T08:03:53;21.20;;;20.40;;
29236;SDS011;16266;50.866;4.398;2023-07-08T08:06:19;23.33;;;22.10;;
29236;SDS011;16266;50.866;4.398;2023-07-08T08:08:44;22.67;;;21.85;;
29236;SDS011;16266;50.866;4.398;2023-07-08T08:11:10;19.48;;;18.77;;
29236;SDS011;16266;50.866;4.398;2023-07-08T08:13:36;20.75;;;19.77;;
29236;SDS011;16266;50.866;4.398;2023-07-08T08:16:02;16.35;;;15.75;;
29236;SDS011;16266;50.866;4.398;2023-07-08T08:18:29;17.40;;;16.65;;
29236;SDS011;16266;50.866;4.398;2023-07-08T08:20:55;19.25;;;18.55;;
29236;SDS011;16266;50.866;4.398;2023-07-08T08:23:20;19.27;;;18.58;;
29236;SDS011;16266;50.866;4.398;2023-07-08T08:25:46;19.08;;;18.38;;
29236;SDS011;16266;50.866;4.398;2023-07-08T08:28:11;17.65;;;17.02;;
29236;SDS011;16266;50.866;4.398;2023-07-08T08:30:37;22.30;;;21.55;;
29236;SDS011;16266;50.866;4.398;2023-07-08T08:33:03;23.50;;;22.70;;
29236;SDS011;16266;50.866;4.398;2023-07-08T08:35:29;22.65;;;21.75;;
29236;SDS011;16266;50.866;4.398;2023-07-08T08:37:54;19.25;;;18.60;;
29236;SDS011;16266;50.866;4.398;2023-07-08T08:40:20;24.90;;;24.00;;
29236;SDS011;16266;50.866;4.398;2023-07-08T08:42:50;23.10;;;22.27;;
29236;SDS011;16266;50.866;4.398;2023-07-08T08:45:22;24.48;;;23.58;;
29236;SDS011;16266;50.866;4.398;2023-07-08T08:47:51;26.35;;;25.23;;
29236;SDS011;16266;50.866;4.398;2023-07-08T08:52:57;22.23;;;21.45;;
29236;SDS011;16266;50.866;4.398;2023-07-08T08:55:27;18.80;;;18.00;;
29236;SDS011;16266;50.866;4.398;2023-07-08T09:00:31;24.23;;;23.23;;
29236;SDS011;16266;50.866;4.398;2023-07-08T09:03:29;23.02;;;22.23;;
29236;SDS011;16266;50.866;4.398;2023-07-08T09:06:26;23.63;;;22.77;;
29236;SDS011;16266;50.866;4.398;2023-07-08T09:08:54;22.00;;;21.10;;
29236;SDS011;16266;50.866;4.398;2023-07-08T09:11:36;21.30;;;20.50;;
29236;SDS011;16266;50.866;4.398;2023-07-08T09:14:22;20.77;;;19.98;;
29236;SDS011;16266;50.866;4.398;2023-07-08T09:19:41;22.23;;;21.42;;
29236;SDS011;16266;50.866;4.398;2023-07-08T09:25:05;23.40;;;22.42;;
29236;SDS011;16266;50.866;4.398;2023-07-08T09:27:45;21.90;;;21.10;;
29236;SDS011;16266;50.866;4.398;2023-07-08T09:30:16;23.63;;;22.70;;
29236;SDS011;16266;50.866;4.398;2023-07-08T09:32:45;27.38;;;26.13;;
29236;SDS011;16266;50.866;4.398;2023-07-08T09:35:16;36.53;;;34.92;;
29236;SDS011;16266;50.866;4.398;2023-07-08T09:37:51;38.10;;;36.78;;
29236;SDS011;16266;50.866;4.398;2023-07-08T09:40:22;27.52;;;26.63;;
29236;SDS011;16266;50.866;4.398;2023-07-08T09:42:55;33.03;;;31.77;;
29236;SDS011;16266;50.866;4.398;2023-07-08T09:45:28;32.80;;;31.67;;
29236;SDS011;16266;50.866;4.398;2023-07-08T09:48:05;40.63;;;39.08;;
29236;SDS011;16266;50.866;4.398;2023-07-08T09:50:49;40.65;;;38.47;;
29236;SDS011;16266;50.866;4.398;2023-07-08T09:53:17;27.98;;;26.98;;
29236;SDS011;16266;50.866;4.398;2023-07-08T09:55:44;27.30;;;26.15;;
29236;SDS011;16266;50.866;4.398;2023-07-08T09:58:28;28.98;;;27.95;;
29236;SDS011;16266;50.866;4.398;2023-07-08T10:01:10;26.08;;;25.17;;
29236;SDS011;16266;50.866;4.398;2023-07-08T10:03:46;23.17;;;22.40;;
29236;SDS011;16266;50.866;4.398;2023-07-08T10:06:22;24.58;;;23.60;;
29236;SDS011;16266;50.866;4.398;2023-07-08T10:08:59;22.00;;;20.60;;
29236;SDS011;16266;50.866;4.398;2023-07-08T10:11:30;24.20;;;22.87;;
29236;SDS011;16266;50.866;4.398;2023-07-08T10:14:11;22.17;;;21.27;;
29236;SDS011;16266;50.866;4.398;2023-07-08T10:16:46;21.63;;;20.50;;
29236;SDS011;16266;50.866;4.398;2023-07-08T10:19:13;19.23;;;18.42;;
29236;SDS011;16266;50.866;4.398;2023-07-08T10:29:37;21.60;;;20.80;;
29236;SDS011;16266;50.866;4.398;2023-07-08T10:32:20;20.58;;;19.88;;
29236;SDS011;16266;50.866;4.398;2023-07-08T10:35:09;20.33;;;19.63;;
29236;SDS011;16266;50.866;4.398;2023-07-08T10:37:47;21.80;;;21.08;;
29236;SDS011;16266;50.866;4.398;2023-07-08T10:40:27;25.17;;;24.08;;
29236;SDS011;16266;50.866;4.398;2023-07-08T10:51:28;23.98;;;23.08;;
29236;SDS011;16266;50.866;4.398;2023-07-08T10:56:40;23.58;;;22.35;;
29236;SDS011;16266;50.866;4.398;2023-07-08T11:04:54;30.10;;;29.00;;
29236;SDS011;16266;50.866;4.398;2023-07-08T11:09:59;27.88;;;26.77;;
29236;SDS011;16266;50.866;4.398;2023-07-08T11:12:36;29.90;;;28.85;;
29236;SDS011;16266;50.866;4.398;2023-07-08T11:20:43;25.80;;;24.85;;
29236;SDS011;16266;50.866;4.398;2023-07-08T11:29:31;26.10;;;25.20;;
29236;SDS011;16266;50.866;4.398;2023-07-08T11:31:58;27.80;;;26.67;;
29236;SDS011;16266;50.866;4.398;2023-07-08T11:34:24;27.55;;;26.45;;
29236;SDS011;16266;50.866;4.398;2023-07-08T11:36:51;26.67;;;25.77;;
29236;SDS011;16266;50.866;4.398;2023-07-08T11:41:53;24.38;;;23.52;;
29236;SDS011;16266;50.866;4.398;2023-07-08T11:44:28;25.60;;;24.63;;
29236;SDS011;16266;50.866;4.398;2023-07-08T11:46:55;26.00;;;25.02;;
29236;SDS011;16266;50.866;4.398;2023-07-08T11:49:22;24.77;;;23.83;;
29236;SDS011;16266;50.866;4.398;2023-07-08T11:51:48;24.85;;;23.95;;
29236;SDS011;16266;50.866;4.398;2023-07-08T11:59:22;24.00;;;23.20;;
29236;SDS011;16266;50.866;4.398;2023-07-08T12:02:04;23.23;;;22.42;;
29236;SDS011;16266;50.866;4.398;2023-07-08T12:04:57;23.25;;;22.45;;
29236;SDS011;16266;50.866;4.398;2023-07-08T12:07:45;22.98;;;22.17;;
29236;SDS011;16266;50.866;4.398;2023-07-08T12:10:46;26.30;;;25.30;;
29236;SDS011;16266;50.866;4.398;2023-07-08T12:13:12;20.75;;;20.05;;
29236;SDS011;16266;50.866;4.398;2023-07-08T12:15:41;21.48;;;20.73;;
29236;SDS011;16266;50.866;4.398;2023-07-08T12:20:57;21.90;;;21.17;;
29236;SDS011;16266;50.866;4.398;2023-07-08T12:23:26;25.25;;;24.25;;
29236;SDS011;16266;50.866;4.398;2023-07-08T12:25:53;19.45;;;18.75;;
29236;SDS011;16266;50.866;4.398;2023-07-08T12:28:20;21.13;;;20.42;;
29236;SDS011;16266;50.866;4.398;2023-07-08T12:30:47;21.95;;;21.17;;
29236;SDS011;16266;50.866;4.398;2023-07-08T12:33:14;21.60;;;20.70;;
29236;SDS011;16266;50.866;4.398;2023-07-08T12:35:41;19.90;;;19.30;;
29236;SDS011;16266;50.866;4.398;2023-07-08T12:41:01;21.45;;;20.65;;
29236;SDS011;16266;50.866;4.398;2023-07-08T12:43:30;23.63;;;22.70;;
29236;SDS011;16266;50.866;4.398;2023-07-08T12:45:56;20.98;;;19.95;;
29236;SDS011;16266;50.866;4.398;2023-07-08T12:48:22;27.25;;;26.33;;
29236;SDS011;16266;50.866;4.398;2023-07-08T12:50:47;46.15;;;44.38;;
29236;SDS011;16266;50.866;4.398;2023-07-08T12:53:15;28.70;;;27.02;;
29236;SDS011;16266;50.866;4.398;2023-07-08T12:55:42;25.08;;;24.27;;
29236;SDS011;16266;50.866;4.398;2023-07-08T12:58:13;354.52;;;338.38;;
29236;SDS011;16266;50.866;4.398;2023-07-08T13:00:45;470.15;;;449.13;;
29236;SDS011;16266;50.866;4.398;2023-07-08T13:03:13;634.80;;;602.03;;
29236;SDS011;16266;50.866;4.398;2023-07-08T13:05:42;729.75;;;686.35;;
29236;SDS011;16266;50.866;4.398;2023-07-08T13:08:14;671.00;;;633.28;;
29236;SDS011;16266;50.866;4.398;2023-07-08T13:10:42;656.92;;;620.45;;
29236;SDS011;16266;50.866;4.398;2023-07-08T13:13:11;860.97;;;798.55;;
29236;SDS011;16266;50.866;4.398;2023-07-08T13:15:40;1093.00;;;979.92;;
29236;SDS011;16266;50.866;4.398;2023-07-08T13:18:17;1117.13;;;995.70;;
29236;SDS011;16266;50.866;4.398;2023-07-08T13:20:46;1045.93;;;946.38;;
29236;SDS011;16266;50.866;4.398;2023-07-08T13:23:20;993.55;;;907.40;;
29236;SDS011;16266;50.866;4.398;2023-07-08T13:25:48;780.97;;;729.10;;
29236;SDS011;16266;50.866;4.398;2023-07-08T13:28:16;701.55;;;656.03;;
29236;SDS011;16266;50.866;4.398;2023-07-08T13:33:18;748.40;;;696.95;;
29236;SDS011;16266;50.866;4.398;2023-07-08T13:35:44;795.75;;;742.10;;
29236;SDS011;16266;50.866;4.398;2023-07-08T13:38:19;799.88;;;748.08;;
29236;SDS011;16266;50.866;4.398;2023-07-08T13:40:47;879.45;;;816.42;;
29236;SDS011;16266;50.866;4.398;2023-07-08T13:43:22;897.33;;;831.88;;
29236;SDS011;16266;50.866;4.398;2023-07-08T13:45:53;899.10;;;833.70;;
29236;SDS011;16266;50.866;4.398;2023-07-08T13:48:52;935.53;;;866.45;;
29236;SDS011;16266;50.866;4.398;2023-07-08T13:51:17;947.45;;;875.20;;
29236;SDS011;16266;50.866;4.398;2023-07-08T13:53:46;1010.45;;;924.97;;
29236;SDS011;16266;50.866;4.398;2023-07-08T13:56:18;946.72;;;871.40;;
29236;SDS011;16266;50.866;4.398;2023-07-08T13:58:45;933.50;;;861.55;;
29236;SDS011;16266;50.866;4.398;2023-07-08T14:01:16;987.67;;;902.20;;
29236;SDS011;16266;50.866;4.398;2023-07-08T14:03:43;980.20;;;900.83;;
29236;SDS011;16266;50.866;4.398;2023-07-08T14:06:16;929.13;;;858.20;;
29236;SDS011;16266;50.866;4.398;2023-07-08T14:08:42;855.80;;;796.90;;
29236;SDS011;16266;50.866;4.398;2023-07-08T14:11:08;1015.90;;;927.53;;
29236;SDS011;16266;50.866;4.398;2023-07-08T14:13:34;1022.42;;;935.53;;
29236;SDS011;16266;50.866;4.398;2023-07-08T14:16:00;764.08;;;716.65;;
29236;SDS011;16266;50.866;4.398;2023-07-08T14:18:27;785.08;;;736.95;;
29236;SDS011;16266;50.866;4.398;2023-07-08T14:20:53;610.50;;;576.08;;
29236;SDS011;16266;50.866;4.398;2023-07-08T14:23:19;542.47;;;512.08;;
29236;SDS011;16266;50.866;4.398;2023-07-08T14:25:45;577.00;;;546.72;;
29236;SDS011;16266;50.866;4.398;2023-07-08T14:28:11;643.90;;;607.15;;
29236;SDS011;16266;50.866;4.398;2023-07-08T14:30:39;522.17;;;495.65;;
29236;SDS011;16266;50.866;4.398;2023-07-08T14:33:12;606.08;;;570.17;;
29236;SDS011;16266;50.866;4.398;2023-07-08T14:35:38;523.28;;;495.92;;
29236;SDS011;16266;50.866;4.398;2023-07-08T14:38:09;521.30;;;496.13;;
29236;SDS011;16266;50.866;4.398;2023-07-08T14:40:38;544.45;;;517.50;;
29236;SDS011;16266;50.866;4.398;2023-07-08T14:43:15;366.20;;;350.25;;
29236;SDS011;16266;50.866;4.398;2023-07-08T14:45:49;508.13;;;484.75;;
29236;SDS011;16266;50.866;4.398;2023-07-08T14:48:18;232.52;;;223.30;;
29236;SDS011;16266;50.866;4.398;2023-07-08T14:50:44;222.57;;;213.05;;
29236;SDS011;16266;50.866;4.398;2023-07-08T14:53:13;342.45;;;327.75;;
29236;SDS011;16266;50.866;4.398;2023-07-08T14:55:40;219.40;;;209.55;;
29236;SDS011;16266;50.866;4.398;2023-07-08T14:58:07;141.18;;;135.15;;
29236;SDS011;16266;50.866;4.398;2023-07-08T15:00:39;112.45;;;107.97;;
29236;SDS011;16266;50.866;4.398;2023-07-08T15:03:04;110.43;;;106.13;;
29236;SDS011;16266;50.866;4.398;2023-07-08T15:05:32;76.15;;;73.30;;
29236;SDS011;16266;50.866;4.398;2023-07-08T15:07:57;84.10;;;80.93;;
29236;SDS011;16266;50.866;4.398;2023-07-08T15:10:24;45.53;;;43.78;;
29236;SDS011;16266;50.866;4.398;2023-07-08T15:12:52;53.70;;;51.70;;
29236;SDS011;16266;50.866;4.398;2023-07-08T15:15:36;42.60;;;41.03;;
29236;SDS011;16266;50.866;4.398;2023-07-08T15:18:03;33.63;;;32.42;;
29236;SDS011;16266;50.866;4.398;2023-07-08T15:20:36;24.58;;;23.48;;
29236;SDS011;16266;50.866;4.398;2023-07-08T15:23:01;21.63;;;20.92;;
29236;SDS011;16266;50.866;4.398;2023-07-08T15:25:27;21.83;;;20.92;;
29236;SDS011;16266;50.866;4.398;2023-07-08T15:27:54;19.67;;;18.88;;
29236;SDS011;16266;50.866;4.398;2023-07-08T15:30:23;23.63;;;22.70;;
29236;SDS011;16266;50.866;4.398;2023-07-08T15:32:50;20.33;;;19.58;;
29236;SDS011;16266;50.866;4.398;2023-07-08T15:35:26;29.80;;;28.80;;